Ship Status Report: callsign CG2436

sailwx.info

Track history (hours):
 
Tides and Currents Weather Stations Pressure Air Temp Water Temp Dewpoint Dewpoint Depression Visibility Wind Speed Wind Dir Waves Ship Positions

Callsign CG2436 (name unknown)

Last reported at 2015-May-14 17:12 UTC. Time now 2015-May-24 17:18 UTC.
Position N 48°25' W 123°23'.
Warning: this ship's position is 10 days out of date.

Date/timePositionNaut miles runAvg speedWind from/ knotsBaromVisibWave heightAir tempDewpointWater temp
2015-May-14 17:12N 48°25' W 123°23'0 0.0
2015-May-14 16:34N 48°25' W 123°23'0 0.0
2015-May-14 15:34N 48°25' W 123°23'0 0.0
2015-May-14 14:33N 48°25' W 123°23'0 0.0
2015-May-14 13:34N 48°25' W 123°23'0 0.0
2015-May-14 12:34N 48°25' W 123°23'0 0.0
2015-May-14 11:34N 48°25' W 123°23'0 0.0
2015-May-14 10:33N 48°25' W 123°23'0 0.0
2015-May-14 09:34N 48°25' W 123°23'0 0.0
2015-May-14 08:32N 48°25' W 123°23'0 0.0
2015-May-14 07:34N 48°25' W 123°23'0 0.0
2015-May-14 06:33N 48°25' W 123°23'0 0.0
2015-May-14 05:33N 48°25' W 123°23'0 0.0
2015-May-14 04:33N 48°25' W 123°23'0 0.0
2015-May-14 03:33N 48°25' W 123°23'0 0.0
2015-May-14 02:33N 48°25' W 123°23'4 4.2
2015-May-14 01:33N 48°25' W 123°17'2118.4
2015-May-14 00:25N 48°46' W 123°21'1416.7
2015-May-13 23:34N 49°00' W 123°17'8 8.1
2015-May-13 22:33N 49°07' W 123°11'0 0.0
2015-May-13 21:33N 49°07' W 123°11'0 0.0
2015-May-13 20:33N 49°07' W 123°11'7 6.1
2015-May-13 19:26N 49°03' W 123°19'7 7.6
2015-May-13 18:33N 49°07' W 123°11'2 1.7
2015-May-13 17:33N 49°08' W 123°14'2 1.9
2015-May-13 16:34N 49°07' W 123°11'0 0.0
2015-May-13 15:33N 49°07' W 123°11'0 0.0
2015-May-13 14:34N 49°07' W 123°11'0 0.0
2015-May-13 13:33N 49°07' W 123°11'0 0.0
2015-May-13 12:33N 49°07' W 123°11'0 0.0
2015-May-13 11:33N 49°07' W 123°11'0 0.0
2015-May-13 10:34N 49°07' W 123°11'0 0.0
2015-May-13 09:34N 49°07' W 123°11'0 0.0
2015-May-13 08:33N 49°07' W 123°11'0 0.0
2015-May-13 07:34N 49°07' W 123°11'0 0.0
2015-May-13 06:34N 49°07' W 123°11'7 6.8
2015-May-13 05:31N 49°03' W 123°20'7 7.4
2015-May-13 04:34N 49°07' W 123°11'0 0.0
2015-May-13 03:33N 49°07' W 123°11'0 0.0
2015-May-13 02:33N 49°07' W 123°11'0 0.0
2015-May-13 01:34N 49°07' W 123°11'0 0.0
2015-May-13 00:34N 49°07' W 123°11'0 0.0
2015-May-12 23:33N 49°07' W 123°11'0 0.0
2015-May-12 22:34N 49°07' W 123°11'0 0.0
2015-May-12 21:34N 49°07' W 123°11'0 0.0
2015-May-12 20:33N 49°07' W 123°11'0 0.0
2015-May-12 19:34N 49°07' W 123°11'0 0.0
2015-May-12 18:34N 49°07' W 123°11'0 0.0
2015-May-12 17:34N 49°07' W 123°11'0 0.0
2015-May-12 16:33N 49°07' W 123°11'0 0.0
2015-May-12 15:34N 49°07' W 123°11'0 0.0
2015-May-12 14:34N 49°07' W 123°11'0 0.0
2015-May-12 13:33N 49°07' W 123°11'0 0.0
2015-May-12 12:33N 49°07' W 123°11'0 0.0
2015-May-12 11:33N 49°07' W 123°11'0 0.0
2015-May-12 10:34N 49°07' W 123°11'0 0.0
2015-May-12 09:33N 49°07' W 123°11'0 0.0
2015-May-12 08:33N 49°07' W 123°11'0 0.0
2015-May-12 07:34N 49°07' W 123°11'1 0.6
2015-May-12 06:34N 49°07' W 123°12'1 0.6
2015-May-12 05:33N 49°07' W 123°11'0 0.0
2015-May-12 04:33N 49°07' W 123°11'0 0.0
2015-May-12 03:33N 49°07' W 123°11'0 0.0
2015-May-12 02:33N 49°07' W 123°11'6 5.6
2015-May-12 01:33N 49°05' W 123°19'6 5.6
2015-May-12 00:33N 49°07' W 123°11'0 0.0
2015-May-11 23:33N 49°07' W 123°11'0 0.0
2015-May-11 22:33N 49°07' W 123°11'0 0.0
2015-May-11 21:33N 49°07' W 123°11'0 0.0
2015-May-11 20:33N 49°07' W 123°11'0 0.0
2015-May-11 19:33N 49°07' W 123°11'0 0.0
2015-May-11 18:33N 49°07' W 123°11'0 0.0
2015-May-11 17:33N 49°07' W 123°11'0 0.0
2015-May-11 16:33N 49°07' W 123°11'0 0.0
2015-May-11 15:33N 49°07' W 123°11'0 0.0
2015-May-11 14:33N 49°07' W 123°11'0 0.0
2015-May-11 13:33N 49°07' W 123°11'0 0.0
2015-May-11 12:33N 49°07' W 123°11'0 0.0
2015-May-11 11:33N 49°07' W 123°11'0 0.0
2015-May-11 10:33N 49°07' W 123°11'5 4.8
2015-May-11 09:34N 49°06' W 123°18'5 4.8
2015-May-11 08:33N 49°07' W 123°11'0 0.0
2015-May-11 07:33N 49°07' W 123°11'0 0.0
2015-May-11 06:33N 49°07' W 123°11'0 0.0
2015-May-11 05:33N 49°07' W 123°11'0 0.0
2015-May-11 04:33N 49°07' W 123°11'2 1.9
2015-May-11 03:34N 49°08' W 123°14'2 1.9
2015-May-11 02:34N 49°07' W 123°11'0 0.0
2015-May-11 01:33N 49°07' W 123°11'0 0.0
2015-May-11 00:33N 49°07' W 123°11'5 5.4
2015-May-10 23:33N 49°06' W 123°19'5 5.2
2015-May-10 22:33N 49°07' W 123°11'0 0.2
2015-May-10 21:33N 49°07' W 123°11'0 0.0
2015-May-10 20:33N 49°07' W 123°11'0 0.0
2015-May-10 19:33N 49°07' W 123°11'0 0.0
2015-May-10 18:33N 49°07' W 123°11'0 0.0
2015-May-10 17:33N 49°07' W 123°11'0 0.0
2015-May-10 16:33N 49°07' W 123°11'0 0.0
2015-May-10 15:33N 49°07' W 123°11'0 0.0
2015-May-10 14:33N 49°07' W 123°11'0 0.0
2015-May-10 13:33N 49°07' W 123°11'0 0.0
2015-May-10 12:33N 49°07' W 123°11'0 0.0
2015-May-10 11:33N 49°07' W 123°11'6 6.0
2015-May-10 10:33N 49°05' W 123°20'6 6.0
2015-May-10 09:33N 49°07' W 123°11'0 0.0
2015-May-10 08:34N 49°07' W 123°11'0 0.0
2015-May-10 07:33N 49°07' W 123°11'0 0.0
2015-May-10 06:33N 49°07' W 123°11'0 0.0
2015-May-10 05:33N 49°07' W 123°11'0 0.0
2015-May-10 04:34N 49°07' W 123°11'0 0.0
2015-May-10 03:33N 49°07' W 123°11'0 0.0
2015-May-10 02:33N 49°07' W 123°11'0 0.0
2015-May-10 01:34N 49°07' W 123°11'0 0.0
2015-May-10 00:33N 49°07' W 123°11'0 0.0
2015-May-09 23:33N 49°07' W 123°11'0 0.0
2015-May-09 22:33N 49°07' W 123°11'0 0.0
2015-May-09 21:34N 49°07' W 123°11'4 4.2
2015-May-09 20:33N 49°06' W 123°18'4 4.3
2015-May-09 19:33N 49°07' W 123°11'0 0.0
2015-May-09 18:33N 49°07' W 123°11'0 0.0
2015-May-09 17:33N 49°07' W 123°11'0 0.0
2015-May-09 16:33N 49°07' W 123°11'0 0.0
2015-May-09 15:33N 49°07' W 123°11'0 0.0
2015-May-09 14:33N 49°07' W 123°11'0 0.0
2015-May-09 13:33N 49°07' W 123°11'0 0.0
2015-May-09 12:33N 49°07' W 123°11'8 7.7
2015-May-09 11:34N 49°04' W 123°22'6 6.3
2015-May-09 10:33N 49°08' W 123°14'2 1.9
2015-May-09 09:34N 49°07' W 123°11'0 0.0
2015-May-09 08:34N 49°07' W 123°11'0 0.0
2015-May-09 07:34N 49°07' W 123°11'0 0.0
2015-May-09 06:33N 49°07' W 123°11'0 0.0
2015-May-09 05:34N 49°07' W 123°11'0 0.0
2015-May-09 04:33N 49°07' W 123°11'0 0.0
2015-May-09 03:33N 49°07' W 123°11'0 0.0
2015-May-09 02:34N 49°07' W 123°11'0 0.0
2015-May-09 01:33N 49°07' W 123°11'3 2.7
2015-May-09 00:34N 49°07' W 123°15'1 0.9
2015-May-08 23:34N 49°08' W 123°14'2 2.0
2015-May-08 22:34N 49°07' W 123°11'0 0.0
2015-May-08 21:33N 49°07' W 123°11'0 0.0
2015-May-08 20:34N 49°07' W 123°11'0 0.0
2015-May-08 19:33N 49°07' W 123°11'0 0.0
2015-May-08 18:33N 49°07' W 123°11'0 0.0
2015-May-08 17:33N 49°07' W 123°11'0 0.0
2015-May-08 16:33N 49°07' W 123°11'0 0.0
2015-May-08 15:33N 49°07' W 123°11'0 0.0
2015-May-08 14:33N 49°07' W 123°11'0 0.0
2015-May-08 13:33N 49°07' W 123°11'0 0.0
2015-May-08 12:33N 49°07' W 123°11'0 0.0
2015-May-08 11:33N 49°07' W 123°11'0 0.0
2015-May-08 10:33N 49°07' W 123°11'0 0.0
2015-May-08 09:33N 49°07' W 123°11'0 0.0
2015-May-08 08:33N 49°07' W 123°11'4 4.0
2015-May-08 07:34N 49°07' W 123°17'4 4.0
2015-May-08 06:33N 49°07' W 123°11'0 0.0
2015-May-08 05:33N 49°07' W 123°11'0 0.0
2015-May-08 04:33N 49°07' W 123°11'0 0.0
2015-May-08 03:33N 49°07' W 123°11'0 0.0
2015-May-08 02:33N 49°07' W 123°11'0 0.0
2015-May-08 01:33N 49°07' W 123°11'0 0.0
2015-May-08 00:33N 49°07' W 123°11'1 1.5
2015-May-07 23:33N 49°08' W 123°13'2 2.0
2015-May-07 22:33N 49°07' W 123°16'3 3.2
2015-May-07 21:33N 49°07' W 123°11'2 1.6
2015-May-07 20:33N 49°08' W 123°14'1 1.0
2015-May-07 19:34N 49°07' W 123°12'1 0.6
2015-May-07 18:33N 49°07' W 123°11'0 0.0
2015-May-07 17:33N 49°07' W 123°11'0 0.0
2015-May-07 16:33N 49°07' W 123°11'4 3.6
2015-May-07 15:33N 49°07' W 123°17'4 3.6
2015-May-07 14:33N 49°07' W 123°11'0 0.0
2015-May-07 13:33N 49°07' W 123°11'0 0.0
2015-May-07 12:33N 49°07' W 123°11'0 0.0
2015-May-07 11:33N 49°07' W 123°11'4 4.3
2015-May-07 10:34N 49°06' W 123°18'4 3.6
2015-May-07 09:33N 49°08' W 123°13'5 5.5
2015-May-07 08:34N 49°04' W 123°18'6 5.9
2015-May-07 07:33N 49°07' W 123°11'0 0.0
2015-May-07 06:33N 49°07' W 123°11'0 0.0
2015-May-07 05:33N 49°07' W 123°11'0 0.0
2015-May-07 04:33N 49°07' W 123°11'0 0.0
2015-May-07 03:33N 49°07' W 123°11'0 0.0
2015-May-07 02:33N 49°07' W 123°11'0 0.0
2015-May-07 01:33N 49°07' W 123°11'4 4.0
2015-May-07 00:33N 49°07' W 123°17'1 0.9
2015-May-06 23:33N 49°07' W 123°16'3 3.1
2015-May-06 22:34N 49°07' W 123°11'0 0.0
2015-May-06 21:34N 49°07' W 123°11'8 7.5
2015-May-06 20:33N 49°06' W 123°23'8 7.5
2015-May-06 19:33N 49°07' W 123°11'0 0.0
2015-May-06 18:33N 49°07' W 123°11'1 0.6
2015-May-06 17:33N 49°07' W 123°12'0 0.2
2015-May-06 16:34N 49°07' W 123°12'1 0.8
2015-May-06 15:33N 49°07' W 123°11'0 0.0
2015-May-06 14:33N 49°07' W 123°11'0 0.0
2015-May-06 13:33N 49°07' W 123°11'0 0.0
2015-May-06 12:33N 49°07' W 123°11'0 0.0
2015-May-06 11:33N 49°07' W 123°11'0 0.0
2015-May-06 10:33N 49°07' W 123°11'4 4.3
2015-May-06 09:33N 49°06' W 123°18'4 4.3
2015-May-06 08:33N 49°07' W 123°11'0 0.0
2015-May-06 07:33N 49°07' W 123°11'0 0.0
2015-May-06 06:33N 49°07' W 123°11'0 0.0
2015-May-06 05:33N 49°07' W 123°11'0 0.0
2015-May-06 04:33N 49°07' W 123°11'0 0.0
2015-May-06 03:33N 49°07' W 123°11'0 0.0
2015-May-06 02:33N 49°07' W 123°11'0 0.0
2015-May-06 01:33N 49°07' W 123°11'0 0.0
2015-May-06 00:33N 49°07' W 123°11'0 0.0
2015-May-05 23:33N 49°07' W 123°11'0 0.0
2015-May-05 22:33N 49°07' W 123°11'5 5.1
2015-May-05 21:33N 49°07' W 123°19'5 5.1
2015-May-05 20:33N 49°07' W 123°11'0 0.0
2015-May-05 19:33N 49°07' W 123°11'0 0.0
2015-May-05 18:33N 49°07' W 123°11'0 0.0
2015-May-05 17:33N 49°07' W 123°11'0 0.4
2015-May-05 16:33N 49°07' W 123°12'0 0.4
2015-May-05 15:33N 49°07' W 123°11'0 0.0
2015-May-05 14:33N 49°07' W 123°11'0 0.0
2015-May-05 13:33N 49°07' W 123°11'0 0.0
2015-May-05 12:33N 49°07' W 123°11'0 0.0
2015-May-05 11:33N 49°07' W 123°11'1 1.1
2015-May-05 10:33N 49°08' W 123°13'1 1.1
2015-May-05 09:33N 49°07' W 123°11'0 0.0
2015-May-05 08:34N 49°07' W 123°11'0 0.0
2015-May-05 07:34N 49°07' W 123°11'0 0.0
2015-May-05 06:34N 49°07' W 123°11'0 0.0
2015-May-05 05:34N 49°07' W 123°11'0 0.0
2015-May-05 04:34N 49°07' W 123°11'0 0.0
2015-May-05 03:34N 49°07' W 123°11'0 0.0
2015-May-05 02:34N 49°07' W 123°11'0 0.0
2015-May-05 01:33N 49°07' W 123°11'0 0.0
2015-May-05 00:34N 49°07' W 123°11'0 0.0
2015-May-04 23:33N 49°07' W 123°11'0 0.0
2015-May-04 22:34N 49°07' W 123°11'0 0.0
2015-May-04 21:33N 49°07' W 123°11'0 0.0
2015-May-04 20:34N 49°07' W 123°11'6 6.4
2015-May-04 19:33N 49°07' W 123°21'6 5.7
2015-May-04 18:34N 49°07' W 123°12'1 0.7
2015-May-04 17:33N 49°07' W 123°11'  
Track history (hours):
 
Tides and Currents Weather Stations Pressure Air Temp Water Temp Dewpoint Dewpoint Depression Visibility Wind Speed Wind Dir Waves Ship Positions

Callsign CG2436 (name unknown)

Last reported at 2015-May-14 17:12 UTC. Time now 2015-May-24 17:18 UTC.
Position N 48°25' W 123°23'.
Warning: this ship's position is 10 days out of date.

Date/timePositionNaut miles runAvg speedWind from/ knotsBaromVisibWave heightAir tempDewpointWater temp
2015-May-14 17:12N 48°25' W 123°23'0 0.0
2015-May-14 16:34N 48°25' W 123°23'0 0.0
2015-May-14 15:34N 48°25' W 123°23'0 0.0
2015-May-14 14:33N 48°25' W 123°23'0 0.0
2015-May-14 13:34N 48°25' W 123°23'0 0.0
2015-May-14 12:34N 48°25' W 123°23'0 0.0
2015-May-14 11:34N 48°25' W 123°23'0 0.0
2015-May-14 10:33N 48°25' W 123°23'0 0.0
2015-May-14 09:34N 48°25' W 123°23'0 0.0
2015-May-14 08:32N 48°25' W 123°23'0 0.0
2015-May-14 07:34N 48°25' W 123°23'0 0.0
2015-May-14 06:33N 48°25' W 123°23'0 0.0
2015-May-14 05:33N 48°25' W 123°23'0 0.0
2015-May-14 04:33N 48°25' W 123°23'0 0.0
2015-May-14 03:33N 48°25' W 123°23'0 0.0
2015-May-14 02:33N 48°25' W 123°23'4 4.2
2015-May-14 01:33N 48°25' W 123°17'2118.4
2015-May-14 00:25N 48°46' W 123°21'1416.7
2015-May-13 23:34N 49°00' W 123°17'8 8.1
2015-May-13 22:33N 49°07' W 123°11'0 0.0
2015-May-13 21:33N 49°07' W 123°11'0 0.0
2015-May-13 20:33N 49°07' W 123°11'7 6.1
2015-May-13 19:26N 49°03' W 123°19'7 7.6
2015-May-13 18:33N 49°07' W 123°11'2 1.7
2015-May-13 17:33N 49°08' W 123°14'2 1.9
2015-May-13 16:34N 49°07' W 123°11'0 0.0
2015-May-13 15:33N 49°07' W 123°11'0 0.0
2015-May-13 14:34N 49°07' W 123°11'0 0.0
2015-May-13 13:33N 49°07' W 123°11'0 0.0
2015-May-13 12:33N 49°07' W 123°11'0 0.0
2015-May-13 11:33N 49°07' W 123°11'0 0.0
2015-May-13 10:34N 49°07' W 123°11'0 0.0
2015-May-13 09:34N 49°07' W 123°11'0 0.0
2015-May-13 08:33N 49°07' W 123°11'0 0.0
2015-May-13 07:34N 49°07' W 123°11'0 0.0
2015-May-13 06:34N 49°07' W 123°11'7 6.8
2015-May-13 05:31N 49°03' W 123°20'7 7.4
2015-May-13 04:34N 49°07' W 123°11'0 0.0
2015-May-13 03:33N 49°07' W 123°11'0 0.0
2015-May-13 02:33N 49°07' W 123°11'0 0.0
2015-May-13 01:34N 49°07' W 123°11'0 0.0
2015-May-13 00:34N 49°07' W 123°11'0 0.0
2015-May-12 23:33N 49°07' W 123°11'0 0.0
2015-May-12 22:34N 49°07' W 123°11'0 0.0
2015-May-12 21:34N 49°07' W 123°11'0 0.0
2015-May-12 20:33N 49°07' W 123°11'0 0.0
2015-May-12 19:34N 49°07' W 123°11'0 0.0
2015-May-12 18:34N 49°07' W 123°11'0 0.0
2015-May-12 17:34N 49°07' W 123°11'0 0.0
2015-May-12 16:33N 49°07' W 123°11'0 0.0
2015-May-12 15:34N 49°07' W 123°11'0 0.0
2015-May-12 14:34N 49°07' W 123°11'0 0.0
2015-May-12 13:33N 49°07' W 123°11'0 0.0
2015-May-12 12:33N 49°07' W 123°11'0 0.0
2015-May-12 11:33N 49°07' W 123°11'0 0.0
2015-May-12 10:34N 49°07' W 123°11'0 0.0
2015-May-12 09:33N 49°07' W 123°11'0 0.0
2015-May-12 08:33N 49°07' W 123°11'0 0.0
2015-May-12 07:34N 49°07' W 123°11'1 0.6
2015-May-12 06:34N 49°07' W 123°12'1 0.6
2015-May-12 05:33N 49°07' W 123°11'0 0.0
2015-May-12 04:33N 49°07' W 123°11'0 0.0
2015-May-12 03:33N 49°07' W 123°11'0 0.0
2015-May-12 02:33N 49°07' W 123°11'6 5.6
2015-May-12 01:33N 49°05' W 123°19'6 5.6
2015-May-12 00:33N 49°07' W 123°11'0 0.0
2015-May-11 23:33N 49°07' W 123°11'0 0.0
2015-May-11 22:33N 49°07' W 123°11'0 0.0
2015-May-11 21:33N 49°07' W 123°11'0 0.0
2015-May-11 20:33N 49°07' W 123°11'0 0.0
2015-May-11 19:33N 49°07' W 123°11'0 0.0
2015-May-11 18:33N 49°07' W 123°11'0 0.0
2015-May-11 17:33N 49°07' W 123°11'0 0.0
2015-May-11 16:33N 49°07' W 123°11'0 0.0
2015-May-11 15:33N 49°07' W 123°11'0 0.0
2015-May-11 14:33N 49°07' W 123°11'0 0.0
2015-May-11 13:33N 49°07' W 123°11'0 0.0
2015-May-11 12:33N 49°07' W 123°11'0 0.0
2015-May-11 11:33N 49°07' W 123°11'0 0.0
2015-May-11 10:33N 49°07' W 123°11'5 4.8
2015-May-11 09:34N 49°06' W 123°18'5 4.8
2015-May-11 08:33N 49°07' W 123°11'0 0.0
2015-May-11 07:33N 49°07' W 123°11'0 0.0
2015-May-11 06:33N 49°07' W 123°11'0 0.0
2015-May-11 05:33N 49°07' W 123°11'0 0.0
2015-May-11 04:33N 49°07' W 123°11'2 1.9
2015-May-11 03:34N 49°08' W 123°14'2 1.9
2015-May-11 02:34N 49°07' W 123°11'0 0.0
2015-May-11 01:33N 49°07' W 123°11'0 0.0
2015-May-11 00:33N 49°07' W 123°11'5 5.4
2015-May-10 23:33N 49°06' W 123°19'5 5.2
2015-May-10 22:33N 49°07' W 123°11'0 0.2
2015-May-10 21:33N 49°07' W 123°11'0 0.0
2015-May-10 20:33N 49°07' W 123°11'0 0.0
2015-May-10 19:33N 49°07' W 123°11'0 0.0
2015-May-10 18:33N 49°07' W 123°11'0 0.0
2015-May-10 17:33N 49°07' W 123°11'0 0.0
2015-May-10 16:33N 49°07' W 123°11'0 0.0
2015-May-10 15:33N 49°07' W 123°11'0 0.0
2015-May-10 14:33N 49°07' W 123°11'0 0.0
2015-May-10 13:33N 49°07' W 123°11'0 0.0
2015-May-10 12:33N 49°07' W 123°11'0 0.0
2015-May-10 11:33N 49°07' W 123°11'6 6.0
2015-May-10 10:33N 49°05' W 123°20'6 6.0
2015-May-10 09:33N 49°07' W 123°11'0 0.0
2015-May-10 08:34N 49°07' W 123°11'0 0.0
2015-May-10 07:33N 49°07' W 123°11'0 0.0
2015-May-10 06:33N 49°07' W 123°11'0 0.0
2015-May-10 05:33N 49°07' W 123°11'0 0.0
2015-May-10 04:34N 49°07' W 123°11'0 0.0
2015-May-10 03:33N 49°07' W 123°11'0 0.0
2015-May-10 02:33N 49°07' W 123°11'0 0.0
2015-May-10 01:34N 49°07' W 123°11'0 0.0
2015-May-10 00:33N 49°07' W 123°11'0 0.0
2015-May-09 23:33N 49°07' W 123°11'0 0.0
2015-May-09 22:33N 49°07' W 123°11'0 0.0
2015-May-09 21:34N 49°07' W 123°11'4 4.2
2015-May-09 20:33N 49°06' W 123°18'4 4.3
2015-May-09 19:33N 49°07' W 123°11'0 0.0
2015-May-09 18:33N 49°07' W 123°11'0 0.0
2015-May-09 17:33N 49°07' W 123°11'0 0.0
2015-May-09 16:33N 49°07' W 123°11'0 0.0
2015-May-09 15:33N 49°07' W 123°11'0 0.0
2015-May-09 14:33N 49°07' W 123°11'0 0.0
2015-May-09 13:33N 49°07' W 123°11'0 0.0
2015-May-09 12:33N 49°07' W 123°11'8 7.7
2015-May-09 11:34N 49°04' W 123°22'6 6.3
2015-May-09 10:33N 49°08' W 123°14'2 1.9
2015-May-09 09:34N 49°07' W 123°11'0 0.0
2015-May-09 08:34N 49°07' W 123°11'0 0.0
2015-May-09 07:34N 49°07' W 123°11'0 0.0
2015-May-09 06:33N 49°07' W 123°11'0 0.0
2015-May-09 05:34N 49°07' W 123°11'0 0.0
2015-May-09 04:33N 49°07' W 123°11'0 0.0
2015-May-09 03:33N 49°07' W 123°11'0 0.0
2015-May-09 02:34N 49°07' W 123°11'0 0.0
2015-May-09 01:33N 49°07' W 123°11'3 2.7
2015-May-09 00:34N 49°07' W 123°15'1 0.9
2015-May-08 23:34N 49°08' W 123°14'2 2.0
2015-May-08 22:34N 49°07' W 123°11'0 0.0
2015-May-08 21:33N 49°07' W 123°11'0 0.0
2015-May-08 20:34N 49°07' W 123°11'0 0.0
2015-May-08 19:33N 49°07' W 123°11'0 0.0
2015-May-08 18:33N 49°07' W 123°11'0 0.0
2015-May-08 17:33N 49°07' W 123°11'0 0.0
2015-May-08 16:33N 49°07' W 123°11'0 0.0
2015-May-08 15:33N 49°07' W 123°11'0 0.0
2015-May-08 14:33N 49°07' W 123°11'0 0.0
2015-May-08 13:33N 49°07' W 123°11'0 0.0
2015-May-08 12:33N 49°07' W 123°11'0 0.0
2015-May-08 11:33N 49°07' W 123°11'0 0.0
2015-May-08 10:33N 49°07' W 123°11'0 0.0
2015-May-08 09:33N 49°07' W 123°11'0 0.0
2015-May-08 08:33N 49°07' W 123°11'4 4.0
2015-May-08 07:34N 49°07' W 123°17'4 4.0
2015-May-08 06:33N 49°07' W 123°11'0 0.0
2015-May-08 05:33N 49°07' W 123°11'0 0.0
2015-May-08 04:33N 49°07' W 123°11'0 0.0
2015-May-08 03:33N 49°07' W 123°11'0 0.0
2015-May-08 02:33N 49°07' W 123°11'0 0.0
2015-May-08 01:33N 49°07' W 123°11'0 0.0
2015-May-08 00:33N 49°07' W 123°11'1 1.5
2015-May-07 23:33N 49°08' W 123°13'2 2.0
2015-May-07 22:33N 49°07' W 123°16'3 3.2
2015-May-07 21:33N 49°07' W 123°11'2 1.6
2015-May-07 20:33N 49°08' W 123°14'1 1.0
2015-May-07 19:34N 49°07' W 123°12'1 0.6
2015-May-07 18:33N 49°07' W 123°11'0 0.0
2015-May-07 17:33N 49°07' W 123°11'0 0.0
2015-May-07 16:33N 49°07' W 123°11'4 3.6
2015-May-07 15:33N 49°07' W 123°17'4 3.6
2015-May-07 14:33N 49°07' W 123°11'0 0.0
2015-May-07 13:33N 49°07' W 123°11'0 0.0
2015-May-07 12:33N 49°07' W 123°11'0 0.0
2015-May-07 11:33N 49°07' W 123°11'4 4.3
2015-May-07 10:34N 49°06' W 123°18'4 3.6
2015-May-07 09:33N 49°08' W 123°13'5 5.5
2015-May-07 08:34N 49°04' W 123°18'6 5.9
2015-May-07 07:33N 49°07' W 123°11'0 0.0
2015-May-07 06:33N 49°07' W 123°11'0 0.0
2015-May-07 05:33N 49°07' W 123°11'0 0.0
2015-May-07 04:33N 49°07' W 123°11'0 0.0
2015-May-07 03:33N 49°07' W 123°11'0 0.0
2015-May-07 02:33N 49°07' W 123°11'0 0.0
2015-May-07 01:33N 49°07' W 123°11'4 4.0
2015-May-07 00:33N 49°07' W 123°17'1 0.9
2015-May-06 23:33N 49°07' W 123°16'3 3.1
2015-May-06 22:34N 49°07' W 123°11'0 0.0
2015-May-06 21:34N 49°07' W 123°11'8 7.5
2015-May-06 20:33N 49°06' W 123°23'8 7.5
2015-May-06 19:33N 49°07' W 123°11'0 0.0
2015-May-06 18:33N 49°07' W 123°11'1 0.6
2015-May-06 17:33N 49°07' W 123°12'0 0.2
2015-May-06 16:34N 49°07' W 123°12'1 0.8
2015-May-06 15:33N 49°07' W 123°11'0 0.0
2015-May-06 14:33N 49°07' W 123°11'0 0.0
2015-May-06 13:33N 49°07' W 123°11'0 0.0
2015-May-06 12:33N 49°07' W 123°11'0 0.0
2015-May-06 11:33N 49°07' W 123°11'0 0.0
2015-May-06 10:33N 49°07' W 123°11'4 4.3
2015-May-06 09:33N 49°06' W 123°18'4 4.3
2015-May-06 08:33N 49°07' W 123°11'0 0.0
2015-May-06 07:33N 49°07' W 123°11'0 0.0
2015-May-06 06:33N 49°07' W 123°11'0 0.0
2015-May-06 05:33N 49°07' W 123°11'0 0.0
2015-May-06 04:33N 49°07' W 123°11'0 0.0
2015-May-06 03:33N 49°07' W 123°11'0 0.0
2015-May-06 02:33N 49°07' W 123°11'0 0.0
2015-May-06 01:33N 49°07' W 123°11'0 0.0
2015-May-06 00:33N 49°07' W 123°11'0 0.0
2015-May-05 23:33N 49°07' W 123°11'0 0.0
2015-May-05 22:33N 49°07' W 123°11'5 5.1
2015-May-05 21:33N 49°07' W 123°19'5 5.1
2015-May-05 20:33N 49°07' W 123°11'0 0.0
2015-May-05 19:33N 49°07' W 123°11'0 0.0
2015-May-05 18:33N 49°07' W 123°11'0 0.0
2015-May-05 17:33N 49°07' W 123°11'0 0.4
2015-May-05 16:33N 49°07' W 123°12'0 0.4
2015-May-05 15:33N 49°07' W 123°11'0 0.0
2015-May-05 14:33N 49°07' W 123°11'0 0.0
2015-May-05 13:33N 49°07' W 123°11'0 0.0
2015-May-05 12:33N 49°07' W 123°11'0 0.0
2015-May-05 11:33N 49°07' W 123°11'1 1.1
2015-May-05 10:33N 49°08' W 123°13'1 1.1
2015-May-05 09:33N 49°07' W 123°11'0 0.0
2015-May-05 08:34N 49°07' W 123°11'0 0.0
2015-May-05 07:34N 49°07' W 123°11'0 0.0
2015-May-05 06:34N 49°07' W 123°11'0 0.0
2015-May-05 05:34N 49°07' W 123°11'0 0.0
2015-May-05 04:34N 49°07' W 123°11'0 0.0
2015-May-05 03:34N 49°07' W 123°11'0 0.0
2015-May-05 02:34N 49°07' W 123°11'0 0.0
2015-May-05 01:33N 49°07' W 123°11'0 0.0
2015-May-05 00:34N 49°07' W 123°11'0 0.0
2015-May-04 23:33N 49°07' W 123°11'0 0.0
2015-May-04 22:34N 49°07' W 123°11'0 0.0
2015-May-04 21:33N 49°07' W 123°11'0 0.0
2015-May-04 20:34N 49°07' W 123°11'6 6.4
2015-May-04 19:33N 49°07' W 123°21'6 5.7
2015-May-04 18:34N 49°07' W 123°12'1 0.7
2015-May-04 17:33N 49°07' W 123°11'  

Dump ship's entire track history